sensor_id;sensor_type;location;lat;lon;timestamp;temperature;humidity
31263;DHT22;17892;52.080;9.006;2023-06-01T00:01:09;13.00;88.70
31263;DHT22;17892;52.080;9.006;2023-06-01T00:03:38;13.00;90.00
31263;DHT22;17892;52.080;9.006;2023-06-01T00:06:05;13.00;91.00
31263;DHT22;17892;52.080;9.006;2023-06-01T00:08:31;13.00;90.40
31263;DHT22;17892;52.080;9.006;2023-06-01T00:10:57;13.00;90.40
31263;DHT22;17892;52.080;9.006;2023-06-01T00:13:23;13.00;90.20
31263;DHT22;17892;52.080;9.006;2023-06-01T00:15:48;13.00;90.40
31263;DHT22;17892;52.080;9.006;2023-06-01T00:18:14;13.00;90.60
31263;DHT22;17892;52.080;9.006;2023-06-01T00:20:40;13.00;90.50
31263;DHT22;17892;52.080;9.006;2023-06-01T00:23:06;13.00;91.10
31263;DHT22;17892;52.080;9.006;2023-06-01T00:25:34;12.90;91.10
31263;DHT22;17892;52.080;9.006;2023-06-01T00:28:00;12.90;91.10
31263;DHT22;17892;52.080;9.006;2023-06-01T00:30:27;12.90;90.70
31263;DHT22;17892;52.080;9.006;2023-06-01T00:32:53;12.90;91.50
31263;DHT22;17892;52.080;9.006;2023-06-01T00:35:19;12.80;91.00
31263;DHT22;17892;52.080;9.006;2023-06-01T00:37:46;12.80;91.20
31263;DHT22;17892;52.080;9.006;2023-06-01T00:40:12;12.80;91.20
31263;DHT22;17892;52.080;9.006;2023-06-01T00:42:38;12.70;91.70
31263;DHT22;17892;52.080;9.006;2023-06-01T00:45:04;12.70;91.50
31263;DHT22;17892;52.080;9.006;2023-06-01T00:47:36;12.70;91.50
31263;DHT22;17892;52.080;9.006;2023-06-01T00:50:05;12.70;92.40
31263;DHT22;17892;52.080;9.006;2023-06-01T00:52:31;12.60;92.40
31263;DHT22;17892;52.080;9.006;2023-06-01T00:54:57;12.60;92.50
31263;DHT22;17892;52.080;9.006;2023-06-01T00:57:24;12.50;92.30
31263;DHT22;17892;52.080;9.006;2023-06-01T00:59:52;12.50;93.20
31263;DHT22;17892;52.080;9.006;2023-06-01T01:02:19;12.50;92.40
31263;DHT22;17892;52.080;9.006;2023-06-01T01:04:46;12.40;92.40
31263;DHT22;17892;52.080;9.006;2023-06-01T01:07:32;12.40;92.50
31263;DHT22;17892;52.080;9.006;2023-06-01T01:12:53;12.30;93.60
31263;DHT22;17892;52.080;9.006;2023-06-01T01:15:29;12.30;93.40
31263;DHT22;17892;52.080;9.006;2023-06-01T01:18:06;12.30;93.70
31263;DHT22;17892;52.080;9.006;2023-06-01T01:20:41;12.20;92.90
31263;DHT22;17892;52.080;9.006;2023-06-01T01:26:42;12.20;94.90
31263;DHT22;17892;52.080;9.006;2023-06-01T01:29:16;12.20;94.60
31263;DHT22;17892;52.080;9.006;2023-06-01T01:31:45;12.20;93.20
31263;DHT22;17892;52.080;9.006;2023-06-01T01:34:11;12.20;93.40
31263;DHT22;17892;52.080;9.006;2023-06-01T01:36:36;12.20;93.30
31263;DHT22;17892;52.080;9.006;2023-06-01T01:39:03;12.10;93.40
31263;DHT22;17892;52.080;9.006;2023-06-01T01:41:29;12.10;94.00
31263;DHT22;17892;52.080;9.006;2023-06-01T01:43:55;12.10;94.60
31263;DHT22;17892;52.080;9.006;2023-06-01T01:46:25;12.10;94.10
31263;DHT22;17892;52.080;9.006;2023-06-01T01:49:20;12.00;94.20
31263;DHT22;17892;52.080;9.006;2023-06-01T01:51:54;12.00;94.60
31263;DHT22;17892;52.080;9.006;2023-06-01T01:54:24;12.00;94.30
31263;DHT22;17892;52.080;9.006;2023-06-01T01:56:53;12.00;94.20
31263;DHT22;17892;52.080;9.006;2023-06-01T01:59:19;12.00;94.20
31263;DHT22;17892;52.080;9.006;2023-06-01T02:01:46;12.00;94.90
31263;DHT22;17892;52.080;9.006;2023-06-01T02:04:12;12.00;94.50
31263;DHT22;17892;52.080;9.006;2023-06-01T02:06:37;12.00;94.80
31263;DHT22;17892;52.080;9.006;2023-06-01T02:09:04;12.00;94.60
31263;DHT22;17892;52.080;9.006;2023-06-01T02:11:33;12.00;94.60
31263;DHT22;17892;52.080;9.006;2023-06-01T02:14:00;12.00;94.70
31263;DHT22;17892;52.080;9.006;2023-06-01T02:16:25;12.00;95.00
31263;DHT22;17892;52.080;9.006;2023-06-01T02:18:51;12.00;95.20
31263;DHT22;17892;52.080;9.006;2023-06-01T02:21:17;12.00;95.70
31263;DHT22;17892;52.080;9.006;2023-06-01T02:23:43;12.00;95.50
31263;DHT22;17892;52.080;9.006;2023-06-01T02:26:09;12.00;96.00
31263;DHT22;17892;52.080;9.006;2023-06-01T02:28:39;12.00;96.40
31263;DHT22;17892;52.080;9.006;2023-06-01T02:31:06;12.00;96.30
31263;DHT22;17892;52.080;9.006;2023-06-01T02:33:32;12.00;96.00
31263;DHT22;17892;52.080;9.006;2023-06-01T02:35:59;12.00;95.80
31263;DHT22;17892;52.080;9.006;2023-06-01T02:42:06;12.00;97.30
31263;DHT22;17892;52.080;9.006;2023-06-01T02:44:32;12.00;95.90
31263;DHT22;17892;52.080;9.006;2023-06-01T02:46:57;12.00;95.70
31263;DHT22;17892;52.080;9.006;2023-06-01T02:49:23;12.10;96.50
31263;DHT22;17892;52.080;9.006;2023-06-01T02:51:49;12.00;95.80
31263;DHT22;17892;52.080;9.006;2023-06-01T02:54:14;12.10;96.30
31263;DHT22;17892;52.080;9.006;2023-06-01T02:56:40;12.10;96.40
31263;DHT22;17892;52.080;9.006;2023-06-01T02:59:06;12.10;96.10
31263;DHT22;17892;52.080;9.006;2023-06-01T03:01:31;12.10;96.60
31263;DHT22;17892;52.080;9.006;2023-06-01T03:04:01;12.10;96.80
31263;DHT22;17892;52.080;9.006;2023-06-01T03:06:30;12.10;96.90
31263;DHT22;17892;52.080;9.006;2023-06-01T03:09:05;12.10;97.00
31263;DHT22;17892;52.080;9.006;2023-06-01T03:11:41;12.00;97.70
31263;DHT22;17892;52.080;9.006;2023-06-01T03:14:07;12.00;97.40
31263;DHT22;17892;52.080;9.006;2023-06-01T03:16:33;12.00;97.40
31263;DHT22;17892;52.080;9.006;2023-06-01T03:19:00;12.00;96.50
31263;DHT22;17892;52.080;9.006;2023-06-01T03:21:26;12.00;97.70
31263;DHT22;17892;52.080;9.006;2023-06-01T03:23:52;12.00;97.50
31263;DHT22;17892;52.080;9.006;2023-06-01T03:26:18;11.90;97.30
31263;DHT22;17892;52.080;9.006;2023-06-01T03:28:46;12.00;97.20
31263;DHT22;17892;52.080;9.006;2023-06-01T03:31:12;11.90;97.20
31263;DHT22;17892;52.080;9.006;2023-06-01T03:33:38;11.90;97.10
31263;DHT22;17892;52.080;9.006;2023-06-01T03:36:04;12.00;97.50
31263;DHT22;17892;52.080;9.006;2023-06-01T03:38:32;12.00;97.40
31263;DHT22;17892;52.080;9.006;2023-06-01T03:40:59;12.00;97.10
31263;DHT22;17892;52.080;9.006;2023-06-01T03:43:26;12.00;96.70
31263;DHT22;17892;52.080;9.006;2023-06-01T03:45:52;12.00;96.60
31263;DHT22;17892;52.080;9.006;2023-06-01T03:48:18;12.00;96.70
31263;DHT22;17892;52.080;9.006;2023-06-01T03:50:43;12.00;96.90
31263;DHT22;17892;52.080;9.006;2023-06-01T03:53:09;12.00;96.90
31263;DHT22;17892;52.080;9.006;2023-06-01T03:55:35;12.00;96.90
31263;DHT22;17892;52.080;9.006;2023-06-01T03:58:01;12.00;97.20
31263;DHT22;17892;52.080;9.006;2023-06-01T04:00:28;12.10;97.30
31263;DHT22;17892;52.080;9.006;2023-06-01T04:02:56;12.10;97.00
31263;DHT22;17892;52.080;9.006;2023-06-01T04:05:23;12.10;98.70
31263;DHT22;17892;52.080;9.006;2023-06-01T04:07:52;12.10;98.00
31263;DHT22;17892;52.080;9.006;2023-06-01T04:10:19;12.10;97.90
31263;DHT22;17892;52.080;9.006;2023-06-01T04:12:46;12.10;97.50
31263;DHT22;17892;52.080;9.006;2023-06-01T04:15:15;12.10;97.50
31263;DHT22;17892;52.080;9.006;2023-06-01T04:17:43;12.10;97.70
31263;DHT22;17892;52.080;9.006;2023-06-01T04:20:11;12.10;97.40
31263;DHT22;17892;52.080;9.006;2023-06-01T04:22:38;12.20;97.70
31263;DHT22;17892;52.080;9.006;2023-06-01T04:25:06;12.20;97.90
31263;DHT22;17892;52.080;9.006;2023-06-01T04:27:34;12.20;98.30
31263;DHT22;17892;52.080;9.006;2023-06-01T04:30:06;12.30;97.90
31263;DHT22;17892;52.080;9.006;2023-06-01T04:32:35;12.30;98.10
31263;DHT22;17892;52.080;9.006;2023-06-01T04:35:04;12.30;97.30
31263;DHT22;17892;52.080;9.006;2023-06-01T04:37:40;12.40;97.30
31263;DHT22;17892;52.080;9.006;2023-06-01T04:40:10;12.40;97.80
31263;DHT22;17892;52.080;9.006;2023-06-01T04:42:39;12.40;97.30
31263;DHT22;17892;52.080;9.006;2023-06-01T04:45:14;12.50;97.40
31263;DHT22;17892;52.080;9.006;2023-06-01T04:47:41;12.50;97.40
31263;DHT22;17892;52.080;9.006;2023-06-01T04:50:11;12.50;97.30
31263;DHT22;17892;52.080;9.006;2023-06-01T04:52:38;12.50;97.10
31263;DHT22;17892;52.080;9.006;2023-06-01T04:55:05;12.60;97.30
31263;DHT22;17892;52.080;9.006;2023-06-01T04:57:31;12.50;97.30
31263;DHT22;17892;52.080;9.006;2023-06-01T05:00:00;12.60;97.80
31263;DHT22;17892;52.080;9.006;2023-06-01T05:02:26;12.70;97.60
31263;DHT22;17892;52.080;9.006;2023-06-01T05:04:52;12.70;97.40
31263;DHT22;17892;52.080;9.006;2023-06-01T05:07:17;12.70;97.30
31263;DHT22;17892;52.080;9.006;2023-06-01T05:09:43;12.80;97.30
31263;DHT22;17892;52.080;9.006;2023-06-01T05:12:09;12.80;97.30
31263;DHT22;17892;52.080;9.006;2023-06-01T05:14:35;12.80;97.30
31263;DHT22;17892;52.080;9.006;2023-06-01T05:17:00;12.80;97.10
31263;DHT22;17892;52.080;9.006;2023-06-01T05:19:26;12.90;97.40
31263;DHT22;17892;52.080;9.006;2023-06-01T05:21:52;12.90;97.40
31263;DHT22;17892;52.080;9.006;2023-06-01T05:24:18;12.90;97.60
31263;DHT22;17892;52.080;9.006;2023-06-01T05:26:44;12.90;97.30
31263;DHT22;17892;52.080;9.006;2023-06-01T05:29:11;13.00;97.40
31263;DHT22;17892;52.080;9.006;2023-06-01T05:31:36;13.00;97.60
31263;DHT22;17892;52.080;9.006;2023-06-01T05:34:02;13.00;97.30
31263;DHT22;17892;52.080;9.006;2023-06-01T05:36:28;13.10;97.30
31263;DHT22;17892;52.080;9.006;2023-06-01T05:38:54;13.10;97.30
31263;DHT22;17892;52.080;9.006;2023-06-01T05:41:20;13.10;97.10
31263;DHT22;17892;52.080;9.006;2023-06-01T05:43:45;13.10;97.30
31263;DHT22;17892;52.080;9.006;2023-06-01T05:46:11;13.10;97.10
31263;DHT22;17892;52.080;9.006;2023-06-01T05:48:37;13.10;97.10
31263;DHT22;17892;52.080;9.006;2023-06-01T05:51:02;13.00;97.10
31263;DHT22;17892;52.080;9.006;2023-06-01T05:53:28;13.10;97.20
31263;DHT22;17892;52.080;9.006;2023-06-01T05:55:55;13.10;97.40
31263;DHT22;17892;52.080;9.006;2023-06-01T05:58:21;13.10;97.50
31263;DHT22;17892;52.080;9.006;2023-06-01T06:00:47;13.10;97.20
31263;DHT22;17892;52.080;9.006;2023-06-01T06:03:13;13.10;97.30
31263;DHT22;17892;52.080;9.006;2023-06-01T06:05:39;13.10;97.30
31263;DHT22;17892;52.080;9.006;2023-06-01T06:08:05;13.10;97.20
31263;DHT22;17892;52.080;9.006;2023-06-01T06:10:30;13.20;97.70
31263;DHT22;17892;52.080;9.006;2023-06-01T06:12:56;13.20;97.60
31263;DHT22;17892;52.080;9.006;2023-06-01T06:15:22;13.20;97.70
31263;DHT22;17892;52.080;9.006;2023-06-01T06:17:48;13.20;97.60
31263;DHT22;17892;52.080;9.006;2023-06-01T06:20:13;13.20;97.60
31263;DHT22;17892;52.080;9.006;2023-06-01T06:22:41;13.20;97.50
31263;DHT22;17892;52.080;9.006;2023-06-01T06:25:07;13.20;97.80
31263;DHT22;17892;52.080;9.006;2023-06-01T06:27:34;13.30;98.00
31263;DHT22;17892;52.080;9.006;2023-06-01T06:30:00;13.30;97.60
31263;DHT22;17892;52.080;9.006;2023-06-01T06:32:26;13.30;97.90
31263;DHT22;17892;52.080;9.006;2023-06-01T06:34:51;13.30;98.10
31263;DHT22;17892;52.080;9.006;2023-06-01T06:37:17;13.30;97.90
31263;DHT22;17892;52.080;9.006;2023-06-01T06:39:43;13.30;97.80
31263;DHT22;17892;52.080;9.006;2023-06-01T06:42:10;13.20;97.80
31263;DHT22;17892;52.080;9.006;2023-06-01T06:44:35;13.20;98.30
31263;DHT22;17892;52.080;9.006;2023-06-01T06:47:01;13.20;98.60
31263;DHT22;17892;52.080;9.006;2023-06-01T06:49:27;13.20;98.90
31263;DHT22;17892;52.080;9.006;2023-06-01T06:51:53;13.20;99.30
31263;DHT22;17892;52.080;9.006;2023-06-01T06:54:18;13.20;99.00
31263;DHT22;17892;52.080;9.006;2023-06-01T06:56:44;13.20;98.90
31263;DHT22;17892;52.080;9.006;2023-06-01T06:59:10;13.20;99.30
31263;DHT22;17892;52.080;9.006;2023-06-01T07:01:36;13.20;99.10
31263;DHT22;17892;52.080;9.006;2023-06-01T07:04:06;13.30;99.30
31263;DHT22;17892;52.080;9.006;2023-06-01T07:06:32;13.30;99.80
31263;DHT22;17892;52.080;9.006;2023-06-01T07:08:58;13.40;99.30
31263;DHT22;17892;52.080;9.006;2023-06-01T07:11:24;13.40;99.20
31263;DHT22;17892;52.080;9.006;2023-06-01T07:13:52;13.50;99.30
31263;DHT22;17892;52.080;9.006;2023-06-01T07:16:18;13.60;99.00
31263;DHT22;17892;52.080;9.006;2023-06-01T07:18:44;13.50;99.10
31263;DHT22;17892;52.080;9.006;2023-06-01T07:21:10;13.60;98.90
31263;DHT22;17892;52.080;9.006;2023-06-01T07:23:35;13.60;98.90
31263;DHT22;17892;52.080;9.006;2023-06-01T07:26:01;13.60;99.00
31263;DHT22;17892;52.080;9.006;2023-06-01T07:28:27;13.60;99.20
31263;DHT22;17892;52.080;9.006;2023-06-01T07:30:53;13.60;99.10
31263;DHT22;17892;52.080;9.006;2023-06-01T07:33:19;13.60;99.40
31263;DHT22;17892;52.080;9.006;2023-06-01T07:35:45;13.70;99.30
31263;DHT22;17892;52.080;9.006;2023-06-01T07:38:11;13.80;99.30
31263;DHT22;17892;52.080;9.006;2023-06-01T07:40:37;13.80;99.50
31263;DHT22;17892;52.080;9.006;2023-06-01T07:43:03;13.90;99.40
31263;DHT22;17892;52.080;9.006;2023-06-01T07:45:29;13.90;99.20
31263;DHT22;17892;52.080;9.006;2023-06-01T07:47:55;14.00;99.30
31263;DHT22;17892;52.080;9.006;2023-06-01T07:50:20;14.00;99.40
31263;DHT22;17892;52.080;9.006;2023-06-01T07:52:48;14.10;99.40
31263;DHT22;17892;52.080;9.006;2023-06-01T07:55:15;14.20;99.30
31263;DHT22;17892;52.080;9.006;2023-06-01T07:57:41;14.20;99.20
31263;DHT22;17892;52.080;9.006;2023-06-01T08:00:07;14.30;99.10
31263;DHT22;17892;52.080;9.006;2023-06-01T08:02:37;14.30;98.90
31263;DHT22;17892;52.080;9.006;2023-06-01T08:05:03;14.30;98.70
31263;DHT22;17892;52.080;9.006;2023-06-01T08:07:30;14.30;98.80
31263;DHT22;17892;52.080;9.006;2023-06-01T08:09:56;14.40;98.60
31263;DHT22;17892;52.080;9.006;2023-06-01T08:12:23;14.30;98.60
31263;DHT22;17892;52.080;9.006;2023-06-01T08:14:49;14.30;98.60
31263;DHT22;17892;52.080;9.006;2023-06-01T08:17:16;14.30;98.40
31263;DHT22;17892;52.080;9.006;2023-06-01T08:19:44;14.30;98.60
31263;DHT22;17892;52.080;9.006;2023-06-01T08:22:10;14.30;98.70
31263;DHT22;17892;52.080;9.006;2023-06-01T08:24:37;14.30;98.80
31263;DHT22;17892;52.080;9.006;2023-06-01T08:27:21;14.30;98.80
31263;DHT22;17892;52.080;9.006;2023-06-01T08:29:49;14.30;98.90
31263;DHT22;17892;52.080;9.006;2023-06-01T08:32:16;14.30;98.70
31263;DHT22;17892;52.080;9.006;2023-06-01T08:34:45;14.30;98.60
31263;DHT22;17892;52.080;9.006;2023-06-01T08:37:12;14.40;99.10
31263;DHT22;17892;52.080;9.006;2023-06-01T08:39:41;14.40;98.80
31263;DHT22;17892;52.080;9.006;2023-06-01T08:42:20;14.40;98.90
31263;DHT22;17892;52.080;9.006;2023-06-01T08:44:53;14.40;99.20
31263;DHT22;17892;52.080;9.006;2023-06-01T08:47:19;14.50;99.10
31263;DHT22;17892;52.080;9.006;2023-06-01T08:49:47;14.50;99.00
31263;DHT22;17892;52.080;9.006;2023-06-01T08:52:18;14.60;99.00
31263;DHT22;17892;52.080;9.006;2023-06-01T08:54:46;14.60;99.00
31263;DHT22;17892;52.080;9.006;2023-06-01T08:57:12;14.70;98.90
31263;DHT22;17892;52.080;9.006;2023-06-01T08:59:39;14.70;98.90
31263;DHT22;17892;52.080;9.006;2023-06-01T09:02:05;14.70;98.80
31263;DHT22;17892;52.080;9.006;2023-06-01T09:04:32;14.70;98.80
31263;DHT22;17892;52.080;9.006;2023-06-01T09:07:01;14.80;99.00
31263;DHT22;17892;52.080;9.006;2023-06-01T09:09:27;14.80;99.10
31263;DHT22;17892;52.080;9.006;2023-06-01T09:12:25;14.90;99.10
31263;DHT22;17892;52.080;9.006;2023-06-01T09:15:14;15.00;99.20
31263;DHT22;17892;52.080;9.006;2023-06-01T09:17:47;15.10;99.00
31263;DHT22;17892;52.080;9.006;2023-06-01T09:20:26;15.10;98.80
31263;DHT22;17892;52.080;9.006;2023-06-01T09:22:54;15.20;99.20
31263;DHT22;17892;52.080;9.006;2023-06-01T09:25:28;15.20;98.90
31263;DHT22;17892;52.080;9.006;2023-06-01T09:27:56;15.30;98.90
31263;DHT22;17892;52.080;9.006;2023-06-01T09:30:24;15.30;98.70
31263;DHT22;17892;52.080;9.006;2023-06-01T09:33:09;15.40;98.80
31263;DHT22;17892;52.080;9.006;2023-06-01T09:35:49;15.50;99.00
31263;DHT22;17892;52.080;9.006;2023-06-01T09:38:25;15.50;98.80
31263;DHT22;17892;52.080;9.006;2023-06-01T09:41:03;15.60;98.70
31263;DHT22;17892;52.080;9.006;2023-06-01T09:43:29;15.70;98.60
31263;DHT22;17892;52.080;9.006;2023-06-01T09:46:05;15.70;98.60
31263;DHT22;17892;52.080;9.006;2023-06-01T09:48:33;15.80;98.50
31263;DHT22;17892;52.080;9.006;2023-06-01T09:50:58;15.80;98.30
31263;DHT22;17892;52.080;9.006;2023-06-01T09:53:25;15.90;98.20
31263;DHT22;17892;52.080;9.006;2023-06-01T09:55:59;15.90;98.00
31263;DHT22;17892;52.080;9.006;2023-06-01T09:58:26;15.90;98.10
31263;DHT22;17892;52.080;9.006;2023-06-01T10:00:52;15.90;98.00
31263;DHT22;17892;52.080;9.006;2023-06-01T10:03:20;16.00;98.00
31263;DHT22;17892;52.080;9.006;2023-06-01T10:05:47;16.00;97.90
31263;DHT22;17892;52.080;9.006;2023-06-01T10:08:15;16.00;97.90
31263;DHT22;17892;52.080;9.006;2023-06-01T10:10:48;16.10;97.80
31263;DHT22;17892;52.080;9.006;2023-06-01T10:13:14;16.00;97.60
31263;DHT22;17892;52.080;9.006;2023-06-01T10:15:41;16.00;97.80
31263;DHT22;17892;52.080;9.006;2023-06-01T10:18:07;16.10;98.00
31263;DHT22;17892;52.080;9.006;2023-06-01T10:20:34;16.20;98.00
31263;DHT22;17892;52.080;9.006;2023-06-01T10:23:01;16.30;98.10
31263;DHT22;17892;52.080;9.006;2023-06-01T10:25:31;16.30;97.80
31263;DHT22;17892;52.080;9.006;2023-06-01T10:28:11;16.40;97.70
31263;DHT22;17892;52.080;9.006;2023-06-01T10:30:37;16.50;97.60
31263;DHT22;17892;52.080;9.006;2023-06-01T10:33:06;16.50;97.50
31263;DHT22;17892;52.080;9.006;2023-06-01T10:40:44;16.50;97.30
31263;DHT22;17892;52.080;9.006;2023-06-01T10:46:01;16.50;97.30
31263;DHT22;17892;52.080;9.006;2023-06-01T10:49:05;16.50;97.40
31263;DHT22;17892;52.080;9.006;2023-06-01T10:51:31;16.50;97.20
31263;DHT22;17892;52.080;9.006;2023-06-01T10:54:29;16.60;97.20
31263;DHT22;17892;52.080;9.006;2023-06-01T10:57:17;16.60;97.20
31263;DHT22;17892;52.080;9.006;2023-06-01T11:00:16;16.60;97.20
31263;DHT22;17892;52.080;9.006;2023-06-01T11:02:59;16.70;97.00
31263;DHT22;17892;52.080;9.006;2023-06-01T11:05:45;16.70;96.90
31263;DHT22;17892;52.080;9.006;2023-06-01T11:13:17;16.70;97.00
31263;DHT22;17892;52.080;9.006;2023-06-01T11:18:51;16.70;96.90
31263;DHT22;17892;52.080;9.006;2023-06-01T11:21:35;16.70;96.70
31263;DHT22;17892;52.080;9.006;2023-06-01T11:24:05;16.70;96.70
31263;DHT22;17892;52.080;9.006;2023-06-01T11:26:39;16.60;96.80
31263;DHT22;17892;52.080;9.006;2023-06-01T11:29:16;16.70;96.90
31263;DHT22;17892;52.080;9.006;2023-06-01T11:31:46;16.70;97.00
31263;DHT22;17892;52.080;9.006;2023-06-01T11:34:14;16.70;96.80
31263;DHT22;17892;52.080;9.006;2023-06-01T11:36:43;16.70;96.70
31263;DHT22;17892;52.080;9.006;2023-06-01T11:39:18;16.70;96.70
31263;DHT22;17892;52.080;9.006;2023-06-01T11:41:46;16.60;96.80
31263;DHT22;17892;52.080;9.006;2023-06-01T11:44:13;16.60;96.70
31263;DHT22;17892;52.080;9.006;2023-06-01T11:46:50;16.60;96.70
31263;DHT22;17892;52.080;9.006;2023-06-01T11:49:17;16.60;96.90
31263;DHT22;17892;52.080;9.006;2023-06-01T11:51:42;16.60;97.00
31263;DHT22;17892;52.080;9.006;2023-06-01T11:54:08;16.70;97.20
31263;DHT22;17892;52.080;9.006;2023-06-01T11:56:35;16.70;97.30
31263;DHT22;17892;52.080;9.006;2023-06-01T11:59:05;16.80;97.20
31263;DHT22;17892;52.080;9.006;2023-06-01T12:01:35;16.90;97.00
31263;DHT22;17892;52.080;9.006;2023-06-01T12:04:04;16.90;96.90
31263;DHT22;17892;52.080;9.006;2023-06-01T12:06:33;17.00;96.80
31263;DHT22;17892;52.080;9.006;2023-06-01T12:08:58;17.10;96.70
31263;DHT22;17892;52.080;9.006;2023-06-01T12:11:26;17.10;96.50
31263;DHT22;17892;52.080;9.006;2023-06-01T12:13:55;17.10;96.50
31263;DHT22;17892;52.080;9.006;2023-06-01T12:16:22;17.10;96.50
31263;DHT22;17892;52.080;9.006;2023-06-01T12:18:48;17.20;96.50
31263;DHT22;17892;52.080;9.006;2023-06-01T12:21:15;17.20;96.60
31263;DHT22;17892;52.080;9.006;2023-06-01T12:23:42;17.30;96.70
31263;DHT22;17892;52.080;9.006;2023-06-01T12:26:16;17.30;96.60
31263;DHT22;17892;52.080;9.006;2023-06-01T12:28:51;17.40;96.20
31263;DHT22;17892;52.080;9.006;2023-06-01T12:31:20;17.40;96.20
31263;DHT22;17892;52.080;9.006;2023-06-01T12:33:47;17.40;96.10
31263;DHT22;17892;52.080;9.006;2023-06-01T12:36:33;17.40;96.10
31263;DHT22;17892;52.080;9.006;2023-06-01T12:39:01;17.40;95.90
31263;DHT22;17892;52.080;9.006;2023-06-01T12:41:29;17.40;95.90
31263;DHT22;17892;52.080;9.006;2023-06-01T12:43:55;17.40;95.80
31263;DHT22;17892;52.080;9.006;2023-06-01T12:46:24;17.40;95.80
31263;DHT22;17892;52.080;9.006;2023-06-01T12:49:10;17.40;95.70
31263;DHT22;17892;52.080;9.006;2023-06-01T12:51:37;17.40;95.70
31263;DHT22;17892;52.080;9.006;2023-06-01T12:54:03;17.30;95.60
31263;DHT22;17892;52.080;9.006;2023-06-01T12:56:29;17.20;95.50
31263;DHT22;17892;52.080;9.006;2023-06-01T12:58:55;17.20;95.70
31263;DHT22;17892;52.080;9.006;2023-06-01T13:01:21;17.10;95.90
31263;DHT22;17892;52.080;9.006;2023-06-01T13:03:47;17.10;95.90
31263;DHT22;17892;52.080;9.006;2023-06-01T13:06:15;17.10;96.00
31263;DHT22;17892;52.080;9.006;2023-06-01T13:08:42;17.10;96.20
31263;DHT22;17892;52.080;9.006;2023-06-01T13:11:08;17.10;96.40
31263;DHT22;17892;52.080;9.006;2023-06-01T13:13:34;17.20;96.20
31263;DHT22;17892;52.080;9.006;2023-06-01T13:16:00;17.20;96.10
31263;DHT22;17892;52.080;9.006;2023-06-01T13:18:27;17.20;95.90
31263;DHT22;17892;52.080;9.006;2023-06-01T13:20:53;17.20;95.80
31263;DHT22;17892;52.080;9.006;2023-06-01T13:23:19;17.20;95.70
31263;DHT22;17892;52.080;9.006;2023-06-01T13:25:45;17.20;95.60
31263;DHT22;17892;52.080;9.006;2023-06-01T13:28:11;17.20;95.70
31263;DHT22;17892;52.080;9.006;2023-06-01T13:30:38;17.20;96.00
31263;DHT22;17892;52.080;9.006;2023-06-01T13:33:04;17.10;95.60
31263;DHT22;17892;52.080;9.006;2023-06-01T13:35:31;17.10;95.60
31263;DHT22;17892;52.080;9.006;2023-06-01T13:37:57;17.10;95.70
31263;DHT22;17892;52.080;9.006;2023-06-01T13:40:24;17.20;95.80
31263;DHT22;17892;52.080;9.006;2023-06-01T13:42:51;17.20;95.70
31263;DHT22;17892;52.080;9.006;2023-06-01T13:45:18;17.20;95.60
31263;DHT22;17892;52.080;9.006;2023-06-01T13:47:44;17.20;95.50
31263;DHT22;17892;52.080;9.006;2023-06-01T13:50:11;17.20;95.40
31263;DHT22;17892;52.080;9.006;2023-06-01T13:52:39;17.20;95.60
31263;DHT22;17892;52.080;9.006;2023-06-01T13:55:06;17.20;95.80
31263;DHT22;17892;52.080;9.006;2023-06-01T13:57:32;17.20;95.80
31263;DHT22;17892;52.080;9.006;2023-06-01T13:59:58;17.20;95.70
31263;DHT22;17892;52.080;9.006;2023-06-01T14:02:24;17.30;95.60
31263;DHT22;17892;52.080;9.006;2023-06-01T14:04:49;17.30;95.50
31263;DHT22;17892;52.080;9.006;2023-06-01T14:07:15;17.20;95.40
31263;DHT22;17892;52.080;9.006;2023-06-01T14:09:41;17.30;95.50
31263;DHT22;17892;52.080;9.006;2023-06-01T14:12:07;17.20;95.50
31263;DHT22;17892;52.080;9.006;2023-06-01T14:14:33;17.20;95.50
31263;DHT22;17892;52.080;9.006;2023-06-01T14:16:59;17.20;95.40
31263;DHT22;17892;52.080;9.006;2023-06-01T14:19:25;17.20;95.40
31263;DHT22;17892;52.080;9.006;2023-06-01T14:21:52;17.20;95.50
31263;DHT22;17892;52.080;9.006;2023-06-01T14:24:18;17.20;95.70
31263;DHT22;17892;52.080;9.006;2023-06-01T14:26:44;17.20;95.60
31263;DHT22;17892;52.080;9.006;2023-06-01T14:29:10;17.30;95.60
31263;DHT22;17892;52.080;9.006;2023-06-01T14:31:36;17.30;95.50
31263;DHT22;17892;52.080;9.006;2023-06-01T14:34:01;17.30;95.60
31263;DHT22;17892;52.080;9.006;2023-06-01T14:36:27;17.30;95.70
31263;DHT22;17892;52.080;9.006;2023-06-01T14:38:53;17.40;95.80
31263;DHT22;17892;52.080;9.006;2023-06-01T14:41:19;17.50;95.70
31263;DHT22;17892;52.080;9.006;2023-06-01T14:43:45;17.50;95.50
31263;DHT22;17892;52.080;9.006;2023-06-01T14:46:11;17.50;95.40
31263;DHT22;17892;52.080;9.006;2023-06-01T14:48:36;17.50;95.20
31263;DHT22;17892;52.080;9.006;2023-06-01T14:51:02;17.50;95.10
31263;DHT22;17892;52.080;9.006;2023-06-01T14:53:29;17.50;95.10
31263;DHT22;17892;52.080;9.006;2023-06-01T14:55:54;17.50;95.10
31263;DHT22;17892;52.080;9.006;2023-06-01T14:58:20;17.40;95.10
31263;DHT22;17892;52.080;9.006;2023-06-01T15:00:46;17.40;95.10
31263;DHT22;17892;52.080;9.006;2023-06-01T15:03:12;17.40;95.10
31263;DHT22;17892;52.080;9.006;2023-06-01T15:05:38;17.30;95.10
31263;DHT22;17892;52.080;9.006;2023-06-01T15:08:05;17.30;95.10
31263;DHT22;17892;52.080;9.006;2023-06-01T15:10:32;17.30;95.20
31263;DHT22;17892;52.080;9.006;2023-06-01T15:12:58;17.30;95.20
31263;DHT22;17892;52.080;9.006;2023-06-01T15:15:23;17.20;95.30
31263;DHT22;17892;52.080;9.006;2023-06-01T15:17:49;17.20;95.40
31263;DHT22;17892;52.080;9.006;2023-06-01T15:20:15;17.30;95.50
31263;DHT22;17892;52.080;9.006;2023-06-01T15:22:41;17.30;95.40
31263;DHT22;17892;52.080;9.006;2023-06-01T15:25:07;17.30;95.40
31263;DHT22;17892;52.080;9.006;2023-06-01T15:27:33;17.30;95.40
31263;DHT22;17892;52.080;9.006;2023-06-01T15:29:59;17.30;95.40
31263;DHT22;17892;52.080;9.006;2023-06-01T15:32:25;17.40;95.40
31263;DHT22;17892;52.080;9.006;2023-06-01T15:34:51;17.40;95.10
31263;DHT22;17892;52.080;9.006;2023-06-01T15:37:16;17.40;94.90
31263;DHT22;17892;52.080;9.006;2023-06-01T15:39:45;17.40;94.80
31263;DHT22;17892;52.080;9.006;2023-06-01T15:42:10;17.40;94.70
31263;DHT22;17892;52.080;9.006;2023-06-01T15:44:40;17.30;94.70
31263;DHT22;17892;52.080;9.006;2023-06-01T15:47:07;17.30;94.90
31263;DHT22;17892;52.080;9.006;2023-06-01T15:49:34;17.30;94.80
31263;DHT22;17892;52.080;9.006;2023-06-01T15:52:00;17.30;95.00
31263;DHT22;17892;52.080;9.006;2023-06-01T15:54:32;17.20;94.90
31263;DHT22;17892;52.080;9.006;2023-06-01T15:56:59;17.20;94.90
31263;DHT22;17892;52.080;9.006;2023-06-01T15:59:25;17.30;95.10
31263;DHT22;17892;52.080;9.006;2023-06-01T16:01:51;17.30;95.20